Strona główna
METAR-TAF:

METAR-TAF

Lotnisko :

Épinal, Francja

Szerokość geograficzna: 48-19-31N, Długość geograficzna: 6-04-00E, wysokość: 330 m

Aktualna obserwacja pogody

Raport powstał 33 minut temu, godzina 12:30 UTC
Wiatr 4 kt z kierunków zmiennych
Temperatura 26°C
Wilgotność 28%
Ciśnienie 1014 hPa
Widzialność 10 km lub więcej
Brak chmur poniżej 1500 m i brak chmur cumulonimbus

METAR: LFSG 171230Z AUTO VRB04KT CAVOK 26/06 Q1014

czas: 15:03 (13:03 UTC)


TAF: brakujący

Obserwacja i prognoza pogody dla ponad 4000 lotnisk (raport METAR i TAF).

Dostępne stacje oznaczono żółtymi i czerwonymi punktami na mapie.

Najedź kursorem aby zobaczyć nazwę stacji.

Kliknij aby zobaczyć obserwacje i prognozy pogody.

Aby zmienić mapę: kliknij na zielony przycisk z czarnym krzyżykiem, aby powiększyć; na zielony przycisk z myślnikiem, aby pomniejszyć; na zielone strzałki, aby przejść do map sąsiednich.


METAR-TAF: